Terminal Aerodrome Forecast
Issued by NWS Wilmington, OH

Current Version | Previous Version | Graphics & Text | Print | Product List | Glossary On
Versions: 1 2 3 4 5 6 7 8 9 10 11 12 13 14 15 16 17 18 19 20 21 22 23 24 25 26 27
000
FTUS41 KILN 192300
TAFCMH
TAF
KCMH 192328Z 2000/2024 20003KT P6SM BKN250
     FM201100 21010KT P6SM BKN100
     FM201500 21012G18KT P6SM SCT040 BKN080
     FM201900 22013KT P6SM -SHRA OVC035=

USA.gov is the U.S. government's official web portal to all federal, state and local government web resources and services.